Time;durP1;ratioP1;P1;durP2;ratioP2;P2;SDS_P1;SDS_P2;PMS_P1;PMS_P2;Temp;Humidity;BMP_temperature;BMP_pressure;BME280_temperature;BME280_humidity;BME280_pressure;Samples;Min_cycle;Max_cycle;Signal;HPM_P1;HPM_P2
2021/06/06 00:02:09;;;;;;;57.70;39.50;;;17.40;99.90;;;;;;5032388;28;20039;-52
2021/06/06 00:04:39;;;;;;;62.05;40.90;;;17.40;99.90;;;;;;5050097;28;20428;-51
2021/06/06 00:07:04;;;;;;;63.65;40.17;;;17.40;99.90;;;;;;5051511;28;20025;-52
2021/06/06 00:09:30;;;;;;;63.65;41.58;;;17.40;99.90;;;;;;5049861;28;20054;-51
2021/06/06 00:11:55;;;;;;;68.10;41.75;;;17.40;99.90;;;;;;5050313;28;20105;-55
2021/06/06 00:14:27;;;;;;;71.95;45.20;;;17.40;99.90;;;;;;5050277;28;20120;-55
2021/06/06 00:16:56;;;;;;;68.05;43.30;;;17.50;99.90;;;;;;5032427;28;20025;-54
2021/06/06 00:19:23;;;;;;;72.57;42.67;;;17.50;99.90;;;;;;5032222;28;20577;-52
2021/06/06 00:21:50;;;;;;;67.03;44.22;;;17.40;99.90;;;;;;5051310;28;20021;-52
2021/06/06 00:24:19;;;;;;;74.30;45.10;;;17.40;99.90;;;;;;5054547;28;20051;-52
2021/06/06 00:26:45;;;;;;;76.13;44.58;;;17.40;99.90;;;;;;5054474;28;20028;-51
2021/06/06 00:29:10;;;;;;;72.45;45.35;;;17.50;99.90;;;;;;5053859;28;20505;-52
2021/06/06 00:31:36;;;;;;;75.57;45.70;;;17.50;99.90;;;;;;5054589;28;20025;-50
2021/06/06 00:34:02;;;;;;;84.63;48.50;;;17.60;99.90;;;;;;5054120;28;20025;-54
2021/06/06 00:36:27;;;;;;;79.78;46.47;;;17.60;99.90;;;;;;5054094;28;20071;-54
2021/06/06 00:38:53;;;;;;;76.50;45.28;;;17.50;99.90;;;;;;5053907;28;20032;-51
2021/06/06 00:41:21;;;;;;;77.93;42.53;;;17.50;99.90;;;;;;5054062;28;20025;-49
2021/06/06 00:43:47;;;;;;;72.57;46.22;;;17.50;99.90;;;;;;5054034;28;20483;-50
2021/06/06 00:46:15;;;;;;;73.45;44.75;;;17.50;99.90;;;;;;5054246;28;20040;-49
2021/06/06 00:48:41;;;;;;;71.35;44.33;;;17.50;99.90;;;;;;5054038;28;20514;-50
2021/06/06 00:51:13;;;;;;;81.25;48.38;;;17.50;99.90;;;;;;5054123;28;20025;-54
2021/06/06 00:53:46;;;;;;;84.20;48.55;;;17.50;99.90;;;;;;5054189;28;20471;-49
2021/06/06 00:56:18;;;;;;;83.97;48.13;;;17.50;99.90;;;;;;5054363;28;20483;-53
2021/06/06 00:58:47;;;;;;;77.18;47.95;;;17.50;99.90;;;;;;5053899;28;20029;-58
2021/06/06 01:01:16;;;;;;;78.80;48.38;;;17.50;99.90;;;;;;5054078;28;20096;-54
2021/06/06 01:03:41;;;;;;;81.15;48.63;;;17.50;99.90;;;;;;5054044;28;20434;-56
2021/06/06 01:06:11;;;;;;;76.00;49.58;;;17.50;99.90;;;;;;5054172;28;20021;-53
2021/06/06 01:08:38;;;;;;;81.90;48.78;;;17.50;99.90;;;;;;5053333;28;20017;-53
2021/06/06 01:11:25;;;;;;;83.97;49.28;;;17.50;99.90;;;;;;5053847;28;20108;-56
2021/06/06 01:14:07;;;;;;;78.97;47.75;;;17.50;99.90;;;;;;5053561;28;20025;-55
2021/06/06 01:16:42;;;;;;;85.30;48.92;;;17.40;99.90;;;;;;5053756;28;20071;-53
2021/06/06 01:19:15;;;;;;;75.93;48.22;;;17.40;99.90;;;;;;5053359;28;20025;-52
2021/06/06 01:22:06;;;;;;;84.78;49.60;;;17.40;99.90;;;;;;5052840;28;20060;-54
2021/06/06 01:24:38;;;;;;;83.32;50.95;;;17.40;99.90;;;;;;5053235;28;20029;-52
2021/06/06 01:27:11;;;;;;;79.78;46.35;;;17.40;99.90;;;;;;5053220;28;20434;-53
2021/06/06 01:29:43;;;;;;;77.90;46.90;;;17.50;99.90;;;;;;5052953;28;20116;-54
2021/06/06 01:32:19;;;;;;;81.95;49.35;;;17.50;99.90;;;;;;5035486;28;20021;-54
2021/06/06 01:34:50;;;;;;;77.20;44.95;;;17.50;99.90;;;;;;5034572;28;20035;-55
2021/06/06 01:37:21;;;;;;;76.93;45.30;;;17.50;99.90;;;;;;5053037;28;20032;-49
2021/06/06 01:39:51;;;;;;;93.55;49.22;;;17.50;99.90;;;;;;5052782;28;20040;-54
2021/06/06 01:42:30;;;;;;;82.88;48.63;;;17.50;99.90;;;;;;5052987;28;20072;-56
2021/06/06 01:45:07;;;;;;;82.72;49.35;;;17.50;99.90;;;;;;5052957;28;20473;-52
2021/06/06 01:47:33;;;;;;;84.25;49.10;;;17.50;99.90;;;;;;5053100;28;20458;-52
2021/06/06 01:50:06;;;;;;;76.63;46.30;;;17.40;99.90;;;;;;5052505;28;20120;-52
2021/06/06 01:52:36;;;;;;;73.80;44.97;;;17.50;99.90;;;;;;5052542;28;20124;-54
2021/06/06 01:55:09;;;;;;;83.85;51.45;;;17.50;99.90;;;;;;5034692;28;20021;-53
2021/06/06 01:57:36;;;;;;;79.78;48.17;;;17.50;99.90;;;;;;5052608;28;20105;-56
2021/06/06 02:00:09;;;;;;;79.80;47.55;;;17.40;99.90;;;;;;5034342;28;20025;-55
2021/06/06 02:02:35;;;;;;;70.85;45.05;;;17.50;99.90;;;;;;5052500;28;20087;-53
2021/06/06 02:05:03;;;;;;;80.35;48.88;;;17.50;99.90;;;;;;5052478;28;20104;-53
2021/06/06 02:07:32;;;;;;;77.25;47.97;;;17.40;99.90;;;;;;5034479;28;20051;-50
2021/06/06 02:10:20;;;;;;;79.72;48.95;;;17.40;99.90;;;;;;5052416;28;20550;-55
2021/06/06 02:12:50;;;;;;;89.03;52.83;;;17.40;99.90;;;;;;5051994;28;20029;-49
2021/06/06 02:15:27;;;;;;;93.57;54.25;;;17.40;99.90;;;;;;5034225;28;20394;-52
2021/06/06 02:17:55;;;;;;;88.05;52.85;;;17.40;99.90;;;;;;5034174;28;20049;-51
2021/06/06 02:20:23;;;;;;;91.32;55.40;;;17.30;99.90;;;;;;5051716;28;20083;-49
2021/06/06 02:22:49;;;;;;;89.10;51.28;;;17.40;99.90;;;;;;5051445;28;20503;-49
2021/06/06 02:25:16;;;;;;;93.82;54.70;;;17.30;99.90;;;;;;5051931;28;20036;-52
2021/06/06 02:28:00;;;;;;;95.13;53.17;;;17.40;99.90;;;;;;5051917;28;20398;-50
2021/06/06 02:30:41;;;;;;;91.00;53.50;;;17.40;99.90;;;;;;5051694;28;20085;-57
2021/06/06 02:33:16;;;;;;;89.65;55.20;;;17.40;99.90;;;;;;5052558;28;20075;-52
2021/06/06 02:35:52;;;;;;;86.75;49.38;;;17.30;99.90;;;;;;5053054;28;20553;-58
2021/06/06 02:38:40;;;;;;;93.47;55.05;;;17.30;99.90;;;;;;5036828;28;20056;-57
2021/06/06 02:41:17;;;;;;;82.53;50.80;;;17.20;99.90;;;;;;5051616;28;20036;-52
2021/06/06 02:44:09;;;;;;;84.30;50.78;;;17.20;99.90;;;;;;5051585;28;20029;-54
2021/06/06 02:46:37;;;;;;;87.70;51.92;;;17.10;99.90;;;;;;5023273;28;20099;-52
2021/06/06 02:49:08;;;;;;;85.20;51.22;;;17.20;99.90;;;;;;5051224;28;20025;-55
2021/06/06 02:51:39;;;;;;;79.10;49.78;;;17.10;99.90;;;;;;5051471;28;20017;-56
2021/06/06 02:54:13;;;;;;;90.70;54.78;;;17.20;99.90;;;;;;5033566;28;20370;-57
2021/06/06 02:56:45;;;;;;;86.88;50.97;;;17.20;99.90;;;;;;5051550;28;20047;-54
2021/06/06 02:59:26;;;;;;;78.78;47.50;;;17.20;99.90;;;;;;5033141;28;20399;-52
2021/06/06 03:01:56;;;;;;;83.68;50.08;;;17.20;99.90;;;;;;5051408;28;20028;-55
2021/06/06 03:04:24;;;;;;;87.07;50.80;;;17.20;99.90;;;;;;5051241;28;20439;-55
2021/06/06 03:07:15;;;;;;;79.95;50.22;;;17.30;99.90;;;;;;5051413;28;20037;-54
2021/06/06 03:09:41;;;;;;;80.18;47.53;;;17.20;99.90;;;;;;5051120;28;20155;-52
2021/06/06 03:12:09;;;;;;;74.28;46.58;;;17.20;99.90;;;;;;5033316;28;20029;-54
2021/06/06 03:14:38;;;;;;;72.15;46.45;;;17.20;99.90;;;;;;5051238;28;20025;-52
2021/06/06 03:17:16;;;;;;;72.75;43.83;;;17.20;99.90;;;;;;5033270;28;20028;-54
2021/06/06 03:19:46;;;;;;;68.85;43.95;;;17.10;99.90;;;;;;5033555;28;20441;-56
2021/06/06 03:22:17;;;;;;;71.63;43.97;;;17.20;99.90;;;;;;5051018;28;20021;-54
2021/06/06 03:24:48;;;;;;;66.05;42.00;;;17.10;99.90;;;;;;5051247;28;20459;-52
2021/06/06 03:27:17;;;;;;;64.25;41.45;;;17.20;99.90;;;;;;5050980;28;20025;-51
2021/06/06 03:30:03;;;;;;;64.07;42.53;;;17.10;99.90;;;;;;5032312;28;20141;-52
2021/06/06 03:32:34;;;;;;;65.70;42.42;;;17.10;99.90;;;;;;5050811;28;20061;-51
2021/06/06 03:35:00;;;;;;;60.75;40.08;;;17.10;99.90;;;;;;5051123;28;20239;-56
2021/06/06 03:37:26;;;;;;;61.20;41.55;;;17.10;99.90;;;;;;5051104;28;20025;-57
2021/06/06 03:39:56;;;;;;;62.28;40.72;;;17.20;99.90;;;;;;5050582;28;20399;-53
2021/06/06 03:42:23;;;;;;;66.80;43.83;;;17.20;99.90;;;;;;5050747;28;20047;-53
2021/06/06 03:44:48;;;;;;;65.78;43.60;;;17.20;99.90;;;;;;5050895;28;20292;-54
2021/06/06 03:47:14;;;;;;;55.83;37.65;;;17.20;99.90;;;;;;5050543;28;20494;-55
2021/06/06 03:49:40;;;;;;;54.17;38.00;;;17.30;99.90;;;;;;5050226;28;20078;-53
2021/06/06 03:52:06;;;;;;;57.05;39.40;;;17.30;99.90;;;;;;5032375;28;20155;-54
2021/06/06 03:54:32;;;;;;;58.35;41.08;;;17.30;99.90;;;;;;5050294;28;20108;-49
2021/06/06 03:56:58;;;;;;;52.80;38.40;;;17.30;99.90;;;;;;5050307;28;20029;-51
2021/06/06 03:59:24;;;;;;;55.88;37.03;;;17.20;99.90;;;;;;5050569;28;20028;-50
2021/06/06 04:01:51;;;;;;;59.28;38.40;;;17.20;99.90;;;;;;5050821;28;20059;-53
2021/06/06 04:04:16;;;;;;;56.38;38.38;;;17.10;99.90;;;;;;5032953;28;20033;-54
2021/06/06 04:06:42;;;;;;;59.22;40.47;;;17.20;99.90;;;;;;5050613;28;20445;-53
2021/06/06 04:09:08;;;;;;;55.53;38.38;;;17.20;99.90;;;;;;5032547;28;20438;-51
2021/06/06 04:11:36;;;;;;;61.22;40.38;;;17.20;99.90;;;;;;5050749;28;20100;-51
2021/06/06 04:14:02;;;;;;;56.75;38.92;;;17.30;99.90;;;;;;5050591;28;20572;-49
2021/06/06 04:16:29;;;;;;;53.40;37.33;;;17.30;99.90;;;;;;5050367;28;20033;-55
2021/06/06 04:18:54;;;;;;;51.40;35.63;;;17.30;99.90;;;;;;5050045;28;20022;-55
2021/06/06 04:21:24;;;;;;;56.88;39.00;;;17.30;99.90;;;;;;5050252;28;20047;-52
2021/06/06 04:23:50;;;;;;;52.28;38.72;;;17.20;99.90;;;;;;5032486;28;20017;-50
2021/06/06 04:26:16;;;;;;;51.85;37.00;;;17.20;99.90;;;;;;5050539;28;20426;-50
2021/06/06 04:28:42;;;;;;;54.78;36.58;;;17.10;99.90;;;;;;5050380;28;20025;-50
2021/06/06 04:31:09;;;;;;;51.70;34.28;;;17.10;99.90;;;;;;5032233;28;20025;-55
2021/06/06 04:33:34;;;;;;;45.83;33.38;;;17.10;99.90;;;;;;5050075;28;20013;-52
2021/06/06 04:36:00;;;;;;;43.75;32.30;;;17.00;99.90;;;;;;5050346;28;20021;-50
2021/06/06 04:38:29;;;;;;;45.25;33.00;;;17.10;99.90;;;;;;5050205;28;20505;-51
2021/06/06 04:40:57;;;;;;;48.50;33.28;;;17.10;99.90;;;;;;5050364;28;20029;-53
2021/06/06 04:43:23;;;;;;;46.33;32.97;;;17.10;99.90;;;;;;5050013;28;20017;-53
2021/06/06 04:45:49;;;;;;;46.42;31.98;;;17.10;99.90;;;;;;5050084;28;20399;-52
2021/06/06 04:48:37;;;;;;;48.05;33.00;;;17.00;99.90;;;;;;5032301;28;20029;-57
2021/06/06 04:51:17;;;;;;;41.97;30.63;;;17.00;99.90;;;;;;5050271;28;20067;-50
2021/06/06 04:53:42;;;;;;;40.50;30.40;;;17.00;99.90;;;;;;5050067;28;20017;-53
2021/06/06 04:56:12;;;;;;;41.35;29.60;;;17.00;99.90;;;;;;5032348;28;20013;-55
2021/06/06 04:58:38;;;;;;;44.25;29.75;;;16.90;99.90;;;;;;5031590;28;20021;-58
2021/06/06 05:01:04;;;;;;;49.42;31.88;;;17.00;99.90;;;;;;5032049;28;20025;-51
2021/06/06 05:03:29;;;;;;;43.13;30.83;;;17.00;99.90;;;;;;5049758;28;20148;-51
2021/06/06 05:05:55;;;;;;;44.42;29.38;;;16.90;99.90;;;;;;5049826;28;20037;-54
2021/06/06 05:08:22;;;;;;;42.08;29.63;;;16.90;99.90;;;;;;5050918;28;20569;-55
2021/06/06 05:10:48;;;;;;;41.63;28.40;;;16.90;99.90;;;;;;5035955;28;20079;-48
2021/06/06 05:13:15;;;;;;;38.67;29.20;;;16.90;99.90;;;;;;5053624;28;20110;-52
2021/06/06 05:15:41;;;;;;;43.13;28.73;;;16.90;99.90;;;;;;5054213;28;20380;-50
2021/06/06 05:18:07;;;;;;;41.00;27.88;;;17.00;99.90;;;;;;5054109;28;20033;-57
2021/06/06 05:20:39;;;;;;;38.38;27.17;;;17.00;99.90;;;;;;5035034;28;20051;-56
2021/06/06 05:23:06;;;;;;;39.80;26.85;;;17.00;99.90;;;;;;5053409;28;20491;-53
2021/06/06 05:25:34;;;;;;;40.25;28.50;;;17.00;99.90;;;;;;5053250;28;20449;-53
2021/06/06 05:27:59;;;;;;;38.22;26.80;;;17.00;99.90;;;;;;5053101;28;20037;-51
2021/06/06 05:30:29;;;;;;;36.90;26.58;;;17.00;99.90;;;;;;5052877;28;20460;-53
2021/06/06 05:32:55;;;;;;;37.60;26.25;;;17.00;99.90;;;;;;5052642;28;20021;-54
2021/06/06 05:35:24;;;;;;;49.85;29.27;;;17.00;99.90;;;;;;5052851;28;20070;-55
2021/06/06 05:37:50;;;;;;;37.05;27.73;;;17.00;99.90;;;;;;5053065;28;20024;-55
2021/06/06 05:40:15;;;;;;;42.08;27.52;;;17.10;99.90;;;;;;5034948;28;20423;-52
2021/06/06 05:42:43;;;;;;;38.45;27.73;;;17.20;99.90;;;;;;5052938;28;20032;-53
2021/06/06 05:45:10;;;;;;;40.85;27.48;;;17.20;99.90;;;;;;5052928;28;20040;-53
2021/06/06 05:47:35;;;;;;;38.35;26.95;;;17.30;99.90;;;;;;5052409;28;20120;-55
2021/06/06 05:50:02;;;;;;;39.90;26.95;;;17.20;99.90;;;;;;5052082;28;20120;-55
2021/06/06 05:52:27;;;;;;;38.85;26.92;;;17.30;99.90;;;;;;5052267;28;20071;-59
2021/06/06 05:54:53;;;;;;;39.60;26.00;;;17.30;99.90;;;;;;5052466;28;20114;-53
2021/06/06 05:57:19;;;;;;;37.65;24.83;;;17.30;99.90;;;;;;5051638;28;20523;-49
2021/06/06 05:59:44;;;;;;;37.47;26.02;;;17.40;99.90;;;;;;5051730;28;20593;-50
2021/06/06 06:02:10;;;;;;;40.85;27.80;;;17.40;99.90;;;;;;5052176;28;20083;-48
2021/06/06 06:04:36;;;;;;;39.97;26.63;;;17.40;99.90;;;;;;5033976;28;20086;-52
2021/06/06 06:07:02;;;;;;;41.50;27.58;;;17.50;99.90;;;;;;5052759;28;20029;-49
2021/06/06 06:09:27;;;;;;;39.15;26.98;;;17.60;99.90;;;;;;5051352;28;20099;-44
2021/06/06 06:11:53;;;;;;;38.08;25.42;;;17.60;99.90;;;;;;5033974;28;20025;-52
2021/06/06 06:14:18;;;;;;;33.10;25.60;;;17.60;99.90;;;;;;5051860;28;20403;-46
2021/06/06 06:16:44;;;;;;;38.00;25.77;;;17.80;99.90;;;;;;5052293;28;20025;-48
2021/06/06 06:19:11;;;;;;;40.08;25.63;;;17.90;99.90;;;;;;5051670;28;20053;-46
2021/06/06 06:21:39;;;;;;;35.83;25.20;;;18.10;99.90;;;;;;5052307;28;20053;-48
2021/06/06 06:24:06;;;;;;;31.58;23.70;;;18.20;99.90;;;;;;5052233;28;20025;-46
2021/06/06 06:26:32;;;;;;;35.58;24.80;;;18.60;99.90;;;;;;5034222;28;20028;-44
2021/06/06 06:28:58;;;;;;;32.45;22.75;;;18.90;99.90;;;;;;5051471;28;20025;-46
2021/06/06 06:31:23;;;;;;;27.75;21.15;;;19.20;99.90;;;;;;5051835;28;20060;-51
2021/06/06 06:33:49;;;;;;;30.58;20.90;;;19.50;99.90;;;;;;5051668;28;20498;-51
2021/06/06 06:36:17;;;;;;;30.98;21.42;;;19.70;99.90;;;;;;5051640;28;20063;-46
2021/06/06 06:38:43;;;;;;;32.58;22.27;;;19.90;99.90;;;;;;5051453;28;20029;-46
2021/06/06 06:41:08;;;;;;;34.28;23.95;;;19.90;99.90;;;;;;5051577;28;20031;-49
2021/06/06 06:43:34;;;;;;;28.70;20.88;;;20.00;99.90;;;;;;5052342;28;20107;-45
2021/06/06 06:45:59;;;;;;;32.10;23.20;;;19.90;99.90;;;;;;5052757;28;20032;-46
2021/06/06 06:48:28;;;;;;;35.67;22.15;;;19.80;99.90;;;;;;5051821;28;20040;-51
2021/06/06 06:50:55;;;;;;;32.03;23.00;;;19.90;99.90;;;;;;5051505;28;20083;-47
2021/06/06 06:53:22;;;;;;;32.63;21.05;;;19.90;99.90;;;;;;5051390;28;20480;-50
2021/06/06 06:55:48;;;;;;;33.25;20.77;;;20.00;99.90;;;;;;5051446;28;20107;-52
2021/06/06 06:58:15;;;;;;;29.38;20.80;;;19.90;99.90;;;;;;5050603;28;20104;-49
2021/06/06 07:00:46;;;;;;;32.92;21.55;;;19.70;99.90;;;;;;5050559;28;20126;-48
2021/06/06 07:03:24;;;;;;;34.83;22.55;;;19.60;99.90;;;;;;5051323;28;20033;-57
2021/06/06 07:05:50;;;;;;;32.45;23.17;;;19.50;99.90;;;;;;5051109;28;20495;-51
2021/06/06 07:08:21;;;;;;;31.65;20.98;;;19.40;99.90;;;;;;5051213;28;20063;-53
2021/06/06 07:10:46;;;;;;;35.30;22.23;;;19.40;99.90;;;;;;5050392;28;20036;-48
2021/06/06 07:13:12;;;;;;;36.70;22.63;;;19.40;99.90;;;;;;5032727;28;20511;-52
2021/06/06 07:15:39;;;;;;;35.17;23.17;;;19.30;99.90;;;;;;5049859;28;20017;-50
2021/06/06 07:18:08;;;;;;;30.67;21.00;;;19.30;99.90;;;;;;5050644;28;20025;-44
2021/06/06 07:20:36;;;;;;;28.92;20.65;;;19.30;99.90;;;;;;5050246;28;20037;-50
2021/06/06 07:23:05;;;;;;;30.05;21.02;;;19.00;99.90;;;;;;5050749;28;20036;-54
2021/06/06 07:25:31;;;;;;;36.72;22.00;;;19.00;99.90;;;;;;5050169;28;20083;-48
2021/06/06 07:27:57;;;;;;;30.63;20.50;;;19.00;99.90;;;;;;5050931;28;20052;-53
2021/06/06 07:30:30;;;;;;;34.00;21.70;;;19.10;99.90;;;;;;5050204;28;20490;-50
2021/06/06 07:32:58;;;;;;;29.23;20.98;;;19.10;99.90;;;;;;5050391;28;20040;-48
2021/06/06 07:35:27;;;;;;;28.05;19.63;;;19.20;99.90;;;;;;5050988;28;20059;-50
2021/06/06 07:37:53;;;;;;;29.52;18.90;;;19.20;99.90;;;;;;5050812;28;20021;-50
2021/06/06 07:40:19;;;;;;;27.77;18.98;;;19.20;99.90;;;;;;5050496;28;20032;-53
2021/06/06 07:42:44;;;;;;;23.83;17.25;;;19.20;99.90;;;;;;5050506;28;20491;-52
2021/06/06 07:45:13;;;;;;;25.08;18.25;;;19.30;99.90;;;;;;5050437;28;20041;-49
2021/06/06 07:47:42;;;;;;;25.65;16.77;;;19.30;99.90;;;;;;5050717;28;20155;-55
2021/06/06 07:50:15;;;;;;;21.27;15.85;;;19.40;99.90;;;;;;5050342;28;20025;-53
2021/06/06 07:52:40;;;;;;;23.48;16.63;;;19.40;99.90;;;;;;5050165;28;20028;-53
2021/06/06 07:55:10;;;;;;;23.27;16.83;;;19.40;99.90;;;;;;5037573;28;20036;-48
2021/06/06 07:57:36;;;;;;;18.90;14.20;;;19.60;99.90;;;;;;5048385;28;20443;-49
2021/06/06 08:00:05;;;;;;;17.90;13.40;;;19.60;99.90;;;;;;5049335;28;20021;-54
2021/06/06 08:02:31;;;;;;;20.70;14.52;;;19.60;99.90;;;;;;5032451;28;20053;-57
2021/06/06 08:04:57;;;;;;;19.08;14.65;;;19.50;99.90;;;;;;5051358;28;20033;-50
2021/06/06 08:07:23;;;;;;;19.05;14.85;;;19.60;99.90;;;;;;5050469;28;20037;-57
2021/06/06 08:09:48;;;;;;;18.15;14.82;;;19.70;99.90;;;;;;5048850;28;20025;-54
2021/06/06 08:12:14;;;;;;;19.73;15.13;;;19.70;99.90;;;;;;5049470;28;20449;-56
2021/06/06 08:14:39;;;;;;;15.48;12.90;;;19.70;99.90;;;;;;5031515;28;20021;-56
2021/06/06 08:17:05;;;;;;;17.13;12.07;;;19.70;99.90;;;;;;5031668;28;20044;-63
2021/06/06 08:19:31;;;;;;;16.70;12.70;;;19.60;99.90;;;;;;5048895;28;20027;-54
2021/06/06 08:21:56;;;;;;;18.83;12.80;;;19.70;99.90;;;;;;5048391;28;20033;-52
2021/06/06 08:24:22;;;;;;;17.23;12.20;;;19.60;99.90;;;;;;5048615;28;20070;-58
2021/06/06 08:26:48;;;;;;;15.57;11.70;;;19.60;99.90;;;;;;5048057;28;20025;-55
2021/06/06 08:29:14;;;;;;;15.25;10.90;;;19.70;99.90;;;;;;5047321;28;20502;-55
2021/06/06 08:31:41;;;;;;;14.52;10.90;;;19.70;99.90;;;;;;5048437;28;20033;-55
2021/06/06 08:34:09;;;;;;;13.75;10.68;;;19.70;99.90;;;;;;5048212;28;20021;-56
2021/06/06 08:36:41;;;;;;;14.07;10.05;;;19.70;99.90;;;;;;5049570;28;20029;-55
2021/06/06 08:39:12;;;;;;;13.32;10.02;;;19.70;99.90;;;;;;5049047;28;20174;-53
2021/06/06 08:41:50;;;;;;;12.80;9.95;;;19.90;99.90;;;;;;5049590;28;20044;-56
2021/06/06 08:44:18;;;;;;;11.80;9.65;;;19.90;99.90;;;;;;5052974;28;20549;-54
2021/06/06 08:47:03;;;;;;;10.63;8.85;;;20.00;99.90;;;;;;5053448;28;20021;-59
2021/06/06 08:49:45;;;;;;;11.77;8.90;;;20.10;99.90;;;;;;5056173;28;20478;-51
2021/06/06 08:52:45;;;;;;;12.02;9.13;;;20.30;99.90;;;;;;5053538;28;20108;-56
2021/06/06 08:55:31;;;;;;;10.27;8.38;;;20.50;99.90;;;;;;5042030;28;20021;-55
2021/06/06 08:58:05;;;;;;;;;;;20.60;99.90;;;;;;5053800;28;20023;-55
2021/06/06 09:00:36;;;;;;;9.38;7.70;;;20.80;99.90;;;;;;5052981;28;20004;-51
2021/06/06 09:03:07;;;;;;;9.00;7.70;;;21.00;99.90;;;;;;5053873;28;20496;-49
2021/06/06 09:05:40;;;;;;;11.70;8.77;;;21.20;99.90;;;;;;5052967;28;20047;-55
2021/06/06 09:08:11;;;;;;;8.10;6.85;;;21.50;99.50;;;;;;5053100;28;20025;-54
2021/06/06 09:10:42;;;;;;;7.82;7.03;;;21.50;99.30;;;;;;5053604;28;20028;-56
2021/06/06 09:13:10;;;;;;;8.48;7.00;;;21.50;99.50;;;;;;5052861;28;20497;-53
2021/06/06 09:15:36;;;;;;;8.52;5.90;;;21.50;99.40;;;;;;5052960;28;20522;-57
2021/06/06 09:18:21;;;;;;;7.10;6.32;;;21.50;99.30;;;;;;5052890;28;20099;-57
2021/06/06 09:20:47;;;;;;;;;;;21.50;99.50;;;;;;5050254;28;20407;-54
2021/06/06 09:23:26;;;;;;;8.88;6.47;;;21.80;99.00;;;;;;5020824;28;19915;-55
2021/06/06 09:26:06;;;;;;;8.02;6.53;;;21.60;98.70;;;;;;5053024;28;20033;-51
2021/06/06 09:28:35;;;;;;;8.68;7.35;;;21.60;99.50;;;;;;5052699;28;20512;-50
2021/06/06 09:31:06;;;;;;;8.23;6.88;;;21.30;99.30;;;;;;5052348;28;20044;-51
2021/06/06 09:33:47;;;;;;;6.65;5.70;;;21.20;99.30;;;;;;5053478;28;20025;-51
2021/06/06 09:36:23;;;;;;;7.10;6.40;;;21.40;99.40;;;;;;5034626;28;20146;-51
2021/06/06 09:38:53;;;;;;;7.65;6.57;;;21.50;99.40;;;;;;5052817;28;20105;-50
2021/06/06 09:41:34;;;;;;;7.68;6.18;;;21.90;98.90;;;;;;5052436;28;20033;-50
2021/06/06 09:44:14;;;;;;;7.75;6.10;;;22.20;98.80;;;;;;5052491;28;20045;-51
2021/06/06 09:46:47;;;;;;;6.97;6.28;;;22.50;98.30;;;;;;5034942;28;20025;-51
2021/06/06 09:49:33;;;;;;;9.90;5.82;;;22.60;97.90;;;;;;5051514;28;20044;-49
2021/06/06 09:52:40;;;;;;;6.97;6.28;;;22.60;98.10;;;;;;5052650;28;20056;-53
2021/06/06 09:55:18;;;;;;;6.30;5.22;;;22.60;97.90;;;;;;5051649;28;20025;-52
2021/06/06 09:57:46;;;;;;;5.13;4.63;;;22.80;97.30;;;;;;5052900;28;20032;-54
2021/06/06 10:00:22;;;;;;;7.85;5.35;;;22.80;97.20;;;;;;5052394;28;20165;-53
2021/06/06 10:03:05;;;;;;;7.05;5.60;;;22.80;97.40;;;;;;5052217;28;20082;-53
2021/06/06 10:05:37;;;;;;;6.63;5.07;;;22.80;97.10;;;;;;5052384;28;20440;-54
2021/06/06 10:08:06;;;;;;;5.93;5.32;;;22.80;97.10;;;;;;5052106;28;20036;-53
2021/06/06 10:10:38;;;;;;;5.72;5.22;;;22.90;97.00;;;;;;5051928;28;20408;-53
2021/06/06 10:13:11;;;;;;;6.07;4.18;;;22.70;97.50;;;;;;5052059;28;20124;-51
2021/06/06 10:15:50;;;;;;;6.43;5.78;;;22.70;97.70;;;;;;5052680;28;20017;-54
2021/06/06 10:18:41;;;;;;;6.30;5.50;;;22.70;97.00;;;;;;5052493;28;20383;-51
2021/06/06 10:21:18;;;;;;;5.90;5.30;;;22.70;96.80;;;;;;5052458;28;20521;-51
2021/06/06 10:23:45;;;;;;;5.53;5.03;;;22.70;96.90;;;;;;5051685;28;20035;-52
2021/06/06 10:26:32;;;;;;;5.90;5.20;;;22.80;97.10;;;;;;5051368;28;20028;-54
2021/06/06 10:29:05;;;;;;;8.60;6.55;;;22.80;97.20;;;;;;5051637;28;20036;-55
2021/06/06 10:31:36;;;;;;;7.50;5.93;;;22.90;97.20;;;;;;5045228;28;20044;-58
2021/06/06 10:34:30;;;;;;;5.90;5.30;;;23.00;97.00;;;;;;5051275;28;20021;-55
2021/06/06 10:36:55;;;;;;;6.57;5.90;;;22.90;96.80;;;;;;5051907;28;20025;-51
2021/06/06 10:39:24;;;;;;;6.20;5.60;;;22.80;97.20;;;;;;5052054;28;20044;-55
2021/06/06 10:42:01;;;;;;;6.82;6.05;;;22.70;97.20;;;;;;5052162;28;20407;-55
2021/06/06 10:44:49;;;;;;;8.13;6.43;;;22.70;97.30;;;;;;5052924;28;20029;-57
2021/06/06 10:47:20;;;;;;;8.38;6.53;;;22.50;97.80;;;;;;5052254;28;20025;-55
2021/06/06 10:49:59;;;;;;;6.00;5.40;;;22.60;97.40;;;;;;5052270;28;20040;-56
2021/06/06 10:52:32;;;;;;;6.72;5.88;;;22.50;97.60;;;;;;5052296;28;20028;-56
2021/06/06 10:55:19;;;;;;;7.53;5.75;;;22.60;97.40;;;;;;5051660;28;20013;-55
2021/06/06 10:57:45;;;;;;;6.50;5.85;;;22.40;97.60;;;;;;5020685;28;20104;-55
2021/06/06 11:00:30;;;;;;;8.32;5.88;;;22.30;98.40;;;;;;5047771;28;20025;-51
2021/06/06 11:03:07;;;;;;;7.85;6.25;;;22.40;98.20;;;;;;5040188;28;20025;-53
2021/06/06 11:05:46;;;;;;;7.32;6.63;;;22.30;97.90;;;;;;5033161;28;20561;-58
2021/06/06 11:08:16;;;;;;;7.10;6.40;;;22.30;97.40;;;;;;5034841;28;20391;-54
2021/06/06 11:10:42;;;;;;;7.13;6.43;;;21.90;98.10;;;;;;5052206;28;20039;-55
2021/06/06 11:13:27;;;;;;;8.95;6.18;;;21.90;98.30;;;;;;5058325;28;20028;-56
2021/06/06 11:16:00;;;;;;;7.82;6.93;;;21.80;98.70;;;;;;5038820;28;20510;-56
2021/06/06 11:18:27;;;;;;;8.20;7.22;;;21.80;98.60;;;;;;5053507;28;20036;-56
2021/06/06 11:21:00;;;;;;;7.85;6.55;;;21.80;98.50;;;;;;5052008;28;20480;-57
2021/06/06 11:23:33;;;;;;;7.97;7.18;;;22.00;98.60;;;;;;5051684;28;20029;-52
2021/06/06 11:26:00;;;;;;;8.07;6.65;;;22.10;98.50;;;;;;5034222;28;20040;-54
2021/06/06 11:28:37;;;;;;;7.78;6.30;;;22.30;98.40;;;;;;5051667;28;20029;-57
2021/06/06 11:31:18;;;;;;;7.00;5.88;;;22.40;97.80;;;;;;5053026;28;20094;-57
2021/06/06 11:33:55;;;;;;;7.57;6.78;;;22.40;97.60;;;;;;5051354;28;20031;-49
2021/06/06 11:36:33;;;;;;;8.00;7.20;;;22.40;97.60;;;;;;5050657;28;20042;-53
2021/06/06 11:39:37;;;;;;;8.57;6.85;;;22.40;98.00;;;;;;5050649;28;20041;-51
2021/06/06 11:42:17;;;;;;;6.15;5.55;;;22.40;98.00;;;;;;5045230;28;20044;-53
2021/06/06 11:44:52;;;;;;;7.90;6.38;;;22.20;98.00;;;;;;5050564;28;20506;-54
2021/06/06 11:47:22;;;;;;;;;;;22.10;97.70;;;;;;5051147;28;20129;-53
2021/06/06 11:50:10;;;;;;;8.48;7.00;;;21.90;97.90;;;;;;5032409;28;20393;-50
2021/06/06 11:52:35;;;;;;;9.40;6.30;;;21.70;98.20;;;;;;5051074;28;20021;-54
2021/06/06 11:55:29;;;;;;;7.63;6.85;;;21.70;99.20;;;;;;5050536;28;20028;-50
2021/06/06 11:58:21;;;;;;;9.52;8.10;;;21.80;99.80;;;;;;5042101;28;20032;-52
2021/06/06 12:00:48;;;;;;;7.45;6.22;;;21.70;98.90;;;;;;5032635;28;20132;-50
2021/06/06 12:03:25;;;;;;;6.70;5.85;;;21.80;99.20;;;;;;5032279;28;20101;-49
2021/06/06 12:06:06;;;;;;;8.45;7.00;;;21.90;98.90;;;;;;5070838;22;20084;-53
2021/06/06 12:08:52;;;;;;;7.38;6.15;;;22.00;99.00;;;;;;5051211;28;20082;-46
2021/06/06 12:11:26;;;;;;;;;;;22.10;98.60;;;;;;5070930;28;20502;-48
2021/06/06 12:13:55;;;;;;;7.78;6.03;;;22.20;98.70;;;;;;5070378;28;20305;-46
2021/06/06 12:16:24;;;;;;;6.78;5.53;;;22.20;98.30;;;;;;5070232;28;20452;-47
2021/06/06 12:19:12;;;;;;;7.80;6.13;;;22.30;98.30;;;;;;5072987;28;20090;-48
2021/06/06 12:21:46;;;;;;;6.90;6.25;;;22.50;98.10;;;;;;5074546;28;20028;-48
2021/06/06 12:24:26;;;;;;;6.47;5.85;;;22.70;97.90;;;;;;5074504;28;20025;-48
2021/06/06 12:27:05;;;;;;;6.30;5.70;;;22.70;97.50;;;;;;5074424;28;20028;-45
2021/06/06 12:29:37;;;;;;;6.45;5.85;;;22.70;97.00;;;;;;5073463;28;20419;-46
2021/06/06 12:32:08;;;;;;;7.20;5.70;;;22.60;97.20;;;;;;5074184;28;20025;-49
2021/06/06 12:34:35;;;;;;;8.02;6.68;;;22.70;97.70;;;;;;5074312;28;20052;-48
2021/06/06 12:37:04;;;;;;;7.15;6.45;;;22.80;97.80;;;;;;5074038;28;20036;-47
2021/06/06 12:39:31;;;;;;;9.77;7.35;;;22.80;98.00;;;;;;5073164;28;20078;-46
2021/06/06 12:42:00;;;;;;;8.23;6.88;;;22.80;97.40;;;;;;5073891;28;20109;-46
2021/06/06 12:44:31;;;;;;;8.95;7.47;;;22.80;97.00;;;;;;5074107;28;20116;-46
2021/06/06 12:47:02;;;;;;;8.73;7.55;;;22.70;97.50;;;;;;5073679;28;20016;-49
2021/06/06 12:49:38;;;;;;;8.40;6.75;;;22.50;97.80;;;;;;5072925;28;20103;-48
2021/06/06 12:52:22;;;;;;;8.15;7.13;;;22.30;97.80;;;;;;5072798;28;20020;-47
2021/06/06 12:54:48;;;;;;;8.38;6.57;;;22.10;98.60;;;;;;5073148;28;20249;-47